GAP2383 RPNS-RPVM
Flight info
| Callsign | GAP2383 |
|---|---|
| Flight time | 0h 31m |
| Altitude | 16000 |
| Route | BAMPA BAMPA3P |
| Aircraft | DH8D/M-SDE2E3FGRY/H |
Departure
| Time | 2026-04-30 10:46 |
|---|---|
| Airport | Siargao Airport (RPNS) |
Arrival
| Time | 2026-04-30 11:17 |
|---|---|
| Airport | Mactan Cebu International Airport (RPVM) |
| Time | Latitude | Longitude | Altitude | Speed | Heading |
|---|---|---|---|---|---|
| 2026-04-30 10:38 | 9.85691 | 126.01561 | 18 ft | 0 kts | 99° |
| 2026-04-30 10:42 | 9.85688 | 126.01564 | 17 ft | 0 kts | 139° |
| 2026-04-30 10:42 | 9.85680 | 126.01562 | 17 ft | 2 kts | 213° |
| 2026-04-30 10:43 | 9.85660 | 126.01536 | 17 ft | 7 kts | 238° |
| 2026-04-30 10:43 | 9.85623 | 126.01482 | 17 ft | 9 kts | 215° |
| 2026-04-30 10:43 | 9.85546 | 126.01463 | 17 ft | 12 kts | 191° |
| 2026-04-30 10:43 | 9.85449 | 126.01447 | 17 ft | 15 kts | 189° |
| 2026-04-30 10:44 | 9.85343 | 126.01419 | 17 ft | 15 kts | 198° |
| 2026-04-30 10:44 | 9.85276 | 126.01402 | 17 ft | 4 kts | 177° |
| 2026-04-30 10:44 | 9.85269 | 126.01411 | 17 ft | 1 kts | 57° |
| 2026-04-30 10:44 | 9.85279 | 126.01417 | 17 ft | 1 kts | 15° |
| 2026-04-30 10:45 | 9.85284 | 126.01417 | 17 ft | 0 kts | 8° |
| 2026-04-30 10:45 | 9.85379 | 126.01434 | 17 ft | 47 kts | 10° |
| 2026-04-30 10:45 | 9.86009 | 126.01545 | 19 ft | 130 kts | 10° |
| 2026-04-30 10:45 | 9.86965 | 126.01703 | 438 ft | 146 kts | 12° |
| 2026-04-30 10:46 | 9.88000 | 126.01842 | 1076 ft | 158 kts | 11° |
| 2026-04-30 10:46 | 9.89132 | 126.01831 | 1795 ft | 171 kts | 349° |
| 2026-04-30 10:46 | 9.90114 | 126.01106 | 2260 ft | 189 kts | 307° |
| 2026-04-30 10:46 | 9.90474 | 125.99806 | 2685 ft | 201 kts | 269° |
| 2026-04-30 10:47 | 9.90367 | 125.98367 | 3136 ft | 211 kts | 264° |
| 2026-04-30 10:47 | 9.90213 | 125.96867 | 3611 ft | 216 kts | 263° |
| 2026-04-30 10:47 | 9.90045 | 125.95326 | 4115 ft | 218 kts | 263° |
| 2026-04-30 10:47 | 9.89876 | 125.93787 | 4599 ft | 222 kts | 263° |
| 2026-04-30 10:48 | 9.89705 | 125.92240 | 5098 ft | 224 kts | 263° |
| 2026-04-30 10:48 | 9.89533 | 125.90683 | 5604 ft | 224 kts | 263° |
| 2026-04-30 10:48 | 9.89359 | 125.89110 | 6046 ft | 228 kts | 263° |
| 2026-04-30 10:48 | 9.89182 | 125.87518 | 6505 ft | 230 kts | 263° |
| 2026-04-30 10:49 | 9.89002 | 125.85901 | 6955 ft | 231 kts | 263° |
| 2026-04-30 10:49 | 9.88821 | 125.84274 | 7388 ft | 234 kts | 263° |
| 2026-04-30 10:49 | 9.88640 | 125.82649 | 7815 ft | 236 kts | 263° |
| 2026-04-30 10:49 | 9.88456 | 125.80997 | 8253 ft | 237 kts | 263° |
| 2026-04-30 10:50 | 9.88269 | 125.79318 | 8650 ft | 239 kts | 263° |
| 2026-04-30 10:50 | 9.88083 | 125.77648 | 9057 ft | 240 kts | 263° |
| 2026-04-30 10:50 | 9.87894 | 125.75953 | 9428 ft | 243 kts | 263° |
| 2026-04-30 10:50 | 9.87707 | 125.74274 | 9846 ft | 243 kts | 263° |
| 2026-04-30 10:51 | 9.87515 | 125.72555 | 10239 ft | 244 kts | 263° |
| 2026-04-30 10:51 | 9.87322 | 125.70821 | 10601 ft | 253 kts | 263° |
| 2026-04-30 10:51 | 9.87118 | 125.68990 | 10963 ft | 269 kts | 263° |
| 2026-04-30 10:51 | 9.86904 | 125.67086 | 11504 ft | 276 kts | 263° |
| 2026-04-30 10:52 | 9.86689 | 125.65171 | 12131 ft | 281 kts | 263° |
| 2026-04-30 10:52 | 9.86468 | 125.63203 | 12809 ft | 282 kts | 263° |
| 2026-04-30 10:52 | 9.86245 | 125.61212 | 13457 ft | 285 kts | 263° |
| 2026-04-30 10:52 | 9.86022 | 125.59222 | 14072 ft | 289 kts | 263° |
| 2026-04-30 10:53 | 9.85797 | 125.57206 | 14720 ft | 294 kts | 263° |
| 2026-04-30 10:53 | 9.85569 | 125.55171 | 15472 ft | 293 kts | 263° |
| 2026-04-30 10:53 | 9.85330 | 125.53048 | 15766 ft | 313 kts | 263° |
| 2026-04-30 10:53 | 9.85071 | 125.50768 | 15858 ft | 337 kts | 263° |
| 2026-04-30 10:54 | 9.84793 | 125.48329 | 15883 ft | 359 kts | 263° |
| 2026-04-30 10:54 | 9.84501 | 125.45779 | 15885 ft | 376 kts | 263° |
| 2026-04-30 10:54 | 9.84195 | 125.43101 | 15877 ft | 384 kts | 263° |
| 2026-04-30 10:54 | 9.83886 | 125.40404 | 15878 ft | 389 kts | 263° |
| 2026-04-30 10:55 | 9.83575 | 125.37675 | 15878 ft | 390 kts | 263° |
| 2026-04-30 10:55 | 9.83264 | 125.34938 | 15879 ft | 391 kts | 263° |
| 2026-04-30 10:55 | 9.82953 | 125.32199 | 15876 ft | 389 kts | 263° |
| 2026-04-30 10:55 | 9.82645 | 125.29488 | 15879 ft | 387 kts | 263° |
| 2026-04-30 10:56 | 9.82340 | 125.26788 | 15873 ft | 386 kts | 263° |
| 2026-04-30 10:56 | 9.82036 | 125.24097 | 15874 ft | 386 kts | 263° |
| 2026-04-30 10:56 | 9.81730 | 125.21385 | 15878 ft | 385 kts | 263° |
| 2026-04-30 10:56 | 9.81427 | 125.18706 | 15877 ft | 384 kts | 263° |
| 2026-04-30 10:57 | 9.81121 | 125.15997 | 15871 ft | 384 kts | 263° |
| 2026-04-30 10:57 | 9.80818 | 125.13326 | 15867 ft | 384 kts | 263° |
| 2026-04-30 10:57 | 9.80516 | 125.10650 | 15868 ft | 384 kts | 263° |
| 2026-04-30 10:57 | 9.80209 | 125.07939 | 15861 ft | 384 kts | 263° |
| 2026-04-30 10:58 | 9.79906 | 125.05268 | 15862 ft | 384 kts | 263° |
| 2026-04-30 10:58 | 9.79603 | 125.02597 | 15853 ft | 384 kts | 263° |
| 2026-04-30 10:58 | 9.79299 | 124.99913 | 15857 ft | 383 kts | 263° |
| 2026-04-30 10:58 | 9.78994 | 124.97231 | 15867 ft | 383 kts | 263° |
| 2026-04-30 10:59 | 9.78689 | 124.94551 | 15859 ft | 383 kts | 263° |
| 2026-04-30 10:59 | 9.78382 | 124.91849 | 15856 ft | 383 kts | 263° |
| 2026-04-30 10:59 | 9.78076 | 124.89158 | 15856 ft | 383 kts | 263° |
| 2026-04-30 10:59 | 9.77773 | 124.86499 | 15864 ft | 383 kts | 263° |
| 2026-04-30 11:00 | 9.77465 | 124.83798 | 15858 ft | 384 kts | 263° |
| 2026-04-30 11:00 | 9.77161 | 124.81132 | 15856 ft | 384 kts | 263° |
| 2026-04-30 11:00 | 9.76855 | 124.78455 | 15856 ft | 384 kts | 263° |
| 2026-04-30 11:00 | 9.76549 | 124.75772 | 15854 ft | 384 kts | 263° |
| 2026-04-30 11:01 | 9.76242 | 124.73089 | 15853 ft | 384 kts | 263° |
| 2026-04-30 11:01 | 9.75936 | 124.70412 | 15859 ft | 384 kts | 263° |
| 2026-04-30 11:01 | 9.75627 | 124.67708 | 15855 ft | 384 kts | 263° |
| 2026-04-30 11:01 | 9.75320 | 124.65031 | 15856 ft | 384 kts | 263° |
| 2026-04-30 11:02 | 9.75014 | 124.62316 | 15852 ft | 384 kts | 264° |
| 2026-04-30 11:02 | 9.75046 | 124.59642 | 15853 ft | 383 kts | 276° |
| 2026-04-30 11:02 | 9.75394 | 124.56931 | 15844 ft | 385 kts | 278° |
| 2026-04-30 11:02 | 9.75747 | 124.54276 | 15846 ft | 386 kts | 278° |
| 2026-04-30 11:03 | 9.76108 | 124.51559 | 15847 ft | 387 kts | 278° |
| 2026-04-30 11:03 | 9.76463 | 124.48878 | 15860 ft | 389 kts | 278° |
| 2026-04-30 11:03 | 9.76821 | 124.46145 | 15865 ft | 387 kts | 278° |
| 2026-04-30 11:04 | 9.77518 | 124.40789 | 15875 ft | 380 kts | 278° |
| 2026-04-30 11:04 | 9.77860 | 124.38154 | 15881 ft | 378 kts | 278° |
| 2026-04-30 11:04 | 9.78200 | 124.35529 | 15884 ft | 376 kts | 278° |
| 2026-04-30 11:04 | 9.78539 | 124.32903 | 15813 ft | 376 kts | 278° |
| 2026-04-30 11:05 | 9.78881 | 124.30244 | 15423 ft | 383 kts | 277° |
| 2026-04-30 11:05 | 9.79220 | 124.27592 | 14951 ft | 383 kts | 277° |
| 2026-04-30 11:05 | 9.79564 | 124.24902 | 14463 ft | 382 kts | 277° |
| 2026-04-30 11:05 | 9.79903 | 124.22244 | 13964 ft | 376 kts | 277° |
| 2026-04-30 11:06 | 9.80230 | 124.19670 | 13474 ft | 368 kts | 277° |
| 2026-04-30 11:06 | 9.80591 | 124.17119 | 12928 ft | 368 kts | 282° |
| 2026-04-30 11:06 | 9.81610 | 124.14802 | 12579 ft | 358 kts | 307° |
| 2026-04-30 11:06 | 9.83296 | 124.12949 | 12156 ft | 351 kts | 318° |
| 2026-04-30 11:07 | 9.85040 | 124.11253 | 11688 ft | 344 kts | 319° |
| 2026-04-30 11:07 | 9.86740 | 124.09615 | 11240 ft | 331 kts | 319° |
| 2026-04-30 11:07 | 9.88367 | 124.08055 | 10823 ft | 318 kts | 319° |
| 2026-04-30 11:07 | 9.89963 | 124.06529 | 10408 ft | 307 kts | 320° |
| 2026-04-30 11:08 | 9.91484 | 124.05074 | 10018 ft | 297 kts | 320° |
| 2026-04-30 11:08 | 9.92962 | 124.03665 | 9642 ft | 291 kts | 320° |
| 2026-04-30 11:08 | 9.94434 | 124.02263 | 9255 ft | 286 kts | 320° |
| 2026-04-30 11:08 | 9.95877 | 124.00887 | 8895 ft | 283 kts | 320° |
| 2026-04-30 11:09 | 9.97312 | 123.99519 | 8529 ft | 281 kts | 320° |
| 2026-04-30 11:09 | 9.98719 | 123.98177 | 8181 ft | 279 kts | 320° |
| 2026-04-30 11:09 | 10.00131 | 123.96828 | 7821 ft | 277 kts | 320° |
| 2026-04-30 11:09 | 10.01522 | 123.95499 | 7452 ft | 273 kts | 320° |
| 2026-04-30 11:10 | 10.02912 | 123.94170 | 7097 ft | 271 kts | 320° |
| 2026-04-30 11:10 | 10.04269 | 123.92874 | 6753 ft | 270 kts | 320° |
| 2026-04-30 11:10 | 10.05626 | 123.91573 | 6412 ft | 264 kts | 320° |
| 2026-04-30 11:10 | 10.06958 | 123.90300 | 6076 ft | 262 kts | 320° |
| 2026-04-30 11:11 | 10.08274 | 123.89025 | 5745 ft | 263 kts | 318° |
| 2026-04-30 11:11 | 10.09554 | 123.87722 | 5396 ft | 257 kts | 317° |
| 2026-04-30 11:11 | 10.10803 | 123.86440 | 5068 ft | 248 kts | 318° |
| 2026-04-30 11:11 | 10.11989 | 123.85227 | 4753 ft | 238 kts | 318° |
| 2026-04-30 11:12 | 10.13136 | 123.84067 | 4423 ft | 230 kts | 320° |
| 2026-04-30 11:12 | 10.14519 | 123.83312 | 3868 ft | 220 kts | 357° |
| 2026-04-30 11:12 | 10.15947 | 123.83651 | 3626 ft | 210 kts | 34° |
| 2026-04-30 11:12 | 10.17099 | 123.84568 | 3376 ft | 211 kts | 41° |
| 2026-04-30 11:13 | 10.18189 | 123.85536 | 3104 ft | 203 kts | 43° |
| 2026-04-30 11:13 | 10.19215 | 123.86488 | 2842 ft | 200 kts | 43° |
| 2026-04-30 11:13 | 10.20234 | 123.87450 | 2574 ft | 194 kts | 44° |
| 2026-04-30 11:13 | 10.21195 | 123.88374 | 2327 ft | 189 kts | 44° |
| 2026-04-30 11:14 | 10.22108 | 123.89262 | 2096 ft | 173 kts | 44° |
| 2026-04-30 11:14 | 10.22933 | 123.90066 | 1871 ft | 152 kts | 45° |
| 2026-04-30 11:14 | 10.23643 | 123.90766 | 1720 ft | 133 kts | 45° |
| 2026-04-30 11:14 | 10.24280 | 123.91406 | 1518 ft | 127 kts | 46° |
| 2026-04-30 11:15 | 10.24914 | 123.92051 | 1359 ft | 129 kts | 47° |
| 2026-04-30 11:15 | 10.25538 | 123.92682 | 1179 ft | 126 kts | 46° |
| 2026-04-30 11:15 | 10.26167 | 123.93319 | 1017 ft | 128 kts | 45° |
| 2026-04-30 11:15 | 10.26791 | 123.93967 | 843 ft | 130 kts | 46° |
| 2026-04-30 11:16 | 10.27431 | 123.94622 | 682 ft | 129 kts | 44° |
| 2026-04-30 11:16 | 10.28069 | 123.95250 | 499 ft | 127 kts | 44° |
| 2026-04-30 11:16 | 10.28704 | 123.95895 | 335 ft | 128 kts | 44° |
| 2026-04-30 11:16 | 10.29351 | 123.96532 | 179 ft | 132 kts | 45° |
| 2026-04-30 11:17 | 10.30007 | 123.97189 | 43 ft | 128 kts | 46° |
| 2026-04-30 11:17 | 10.30532 | 123.97718 | 37 ft | 80 kts | 45° |
| 2026-04-30 11:17 | 10.30854 | 123.98041 | 37 ft | 53 kts | 45° |
| 2026-04-30 11:17 | 10.31060 | 123.98243 | 37 ft | 33 kts | 38° |
| 2026-04-30 11:18 | 10.31235 | 123.98329 | 37 ft | 24 kts | 17° |
| 2026-04-30 11:18 | 10.31458 | 123.98257 | 37 ft | 15 kts | 316° |
| 2026-04-30 11:18 | 10.31537 | 123.98177 | 37 ft | 16 kts | 314° |
| 2026-04-30 11:19 | 10.31614 | 123.98116 | 38 ft | 12 kts | 355° |
| 2026-04-30 11:19 | 10.31662 | 123.98132 | 38 ft | 5 kts | 342° |
| 2026-04-30 11:19 | 10.31686 | 123.98109 | 38 ft | 3 kts | 313° |
| 2026-04-30 11:19 | 10.31695 | 123.98100 | 38 ft | 0 kts | 314° |